Time;durP1;ratioP1;P1;durP2;ratioP2;P2;SDS_P1;SDS_P2;PMS_P1;PMS_P2;Temp;Humidity;BMP_temperature;BMP_pressure;BME280_temperature;BME280_humidity;BME280_pressure;Samples;Min_cycle;Max_cycle;Signal;HPM_P1;HPM_P2
2023/10/18 00:01:08;;;;;;;18.60;12.37;;;5.40;99.90;;;;;;4956211;28;20041;-91
2023/10/18 00:03:36;;;;;;;22.83;12.50;;;5.40;99.90;;;;;;4984712;28;20439;-91
2023/10/18 00:06:15;;;;;;;22.33;13.60;;;5.40;99.90;;;;;;4946692;28;20062;-92
2023/10/18 00:08:41;;;;;;;22.37;13.57;;;5.40;99.90;;;;;;4970461;28;20050;-91
2023/10/18 00:11:07;;;;;;;21.90;14.03;;;5.40;99.90;;;;;;4955838;28;20434;-91
2023/10/18 00:13:33;;;;;;;24.67;14.53;;;5.40;99.90;;;;;;4952371;28;20042;-91
2023/10/18 00:16:05;;;;;;;22.47;13.73;;;5.40;99.90;;;;;;4958170;28;20051;-92
2023/10/18 00:18:32;;;;;;;24.45;14.45;;;5.40;99.90;;;;;;4971687;28;20047;-91
2023/10/18 00:21:02;;;;;;;26.53;15.60;;;5.50;99.90;;;;;;4950330;28;20101;-92
2023/10/18 00:23:31;;;;;;;26.30;15.70;;;5.50;99.90;;;;;;4969101;28;20539;-91
2023/10/18 00:25:59;;;;;;;25.90;15.60;;;5.60;99.90;;;;;;4971082;28;20122;-91
2023/10/18 00:28:26;;;;;;;26.73;16.03;;;5.50;99.90;;;;;;4955377;28;20045;-92
2023/10/18 00:30:52;;;;;;;29.17;16.07;;;5.60;99.90;;;;;;4950249;28;20043;-92
2023/10/18 00:33:18;;;;;;;27.40;15.33;;;5.60;99.90;;;;;;4940589;28;20259;-91
2023/10/18 00:35:47;;;;;;;25.63;16.03;;;5.60;99.90;;;;;;4955936;28;20043;-91
2023/10/18 00:38:18;;;;;;;27.90;16.43;;;5.70;99.90;;;;;;4970824;28;20042;-91
2023/10/18 00:40:45;;;;;;;26.77;15.80;;;5.70;99.90;;;;;;4965502;28;20051;-91
2023/10/18 00:45:51;;;;;;;26.33;16.23;;;5.70;99.90;;;;;;4974899;28;20035;-92
2023/10/18 00:48:23;;;;;;;29.43;18.03;;;5.70;99.90;;;;;;4936527;28;20042;-92
2023/10/18 00:50:52;;;;;;;26.83;16.58;;;5.70;99.90;;;;;;4959432;28;20431;-91
2023/10/18 00:53:42;;;;;;;25.50;16.67;;;5.70;99.90;;;;;;4958824;28;20117;-91
2023/10/18 00:56:11;;;;;;;30.47;18.10;;;5.70;99.90;;;;;;4971371;28;20120;-91
2023/10/18 00:58:39;;;;;;;27.97;17.20;;;5.70;99.90;;;;;;4974621;28;20030;-91
2023/10/18 01:01:09;;;;;;;30.17;18.37;;;5.80;99.90;;;;;;4958717;28;20089;-91
2023/10/18 01:03:36;;;;;;;30.00;17.73;;;5.80;99.90;;;;;;4955620;28;20483;-92
2023/10/18 01:06:16;;;;;;;30.90;18.10;;;5.70;99.90;;;;;;4957554;28;20098;-92
2023/10/18 01:08:44;;;;;;;29.53;17.40;;;5.70;99.90;;;;;;4973777;28;20558;-92
2023/10/18 01:11:11;;;;;;;29.20;17.70;;;5.80;99.90;;;;;;4956917;28;20043;-92
2023/10/18 01:13:42;;;;;;;33.00;19.10;;;5.70;99.90;;;;;;4957480;28;20045;-91
2023/10/18 01:16:15;;;;;;;29.47;17.73;;;5.70;99.90;;;;;;4973463;28;20047;-91
2023/10/18 01:18:44;;;;;;;30.13;18.83;;;5.70;99.90;;;;;;4958541;28;20027;-92
2023/10/18 01:21:18;;;;;;;30.00;18.03;;;5.70;99.90;;;;;;4954570;28;20039;-91
2023/10/18 01:23:55;;;;;;;31.73;18.60;;;5.70;99.90;;;;;;4969711;28;20078;-91
2023/10/18 01:26:27;;;;;;;34.47;19.87;;;5.70;99.90;;;;;;4973519;28;20035;-91
2023/10/18 01:28:55;;;;;;;31.40;19.52;;;5.70;99.90;;;;;;4990844;28;20448;-92
2023/10/18 01:31:22;;;;;;;31.30;20.60;;;5.70;99.90;;;;;;4970824;28;20051;-91
2023/10/18 01:33:48;;;;;;;34.23;20.93;;;5.60;99.90;;;;;;4968659;28;20656;-92
2023/10/18 01:36:15;;;;;;;34.23;20.77;;;5.60;99.90;;;;;;4969432;28;20126;-92
2023/10/18 01:38:49;;;;;;;35.47;20.47;;;5.60;99.90;;;;;;4953981;28;20498;-91
2023/10/18 01:41:37;;;;;;;34.23;20.20;;;5.60;99.90;;;;;;4968667;28;20507;-93
2023/10/18 01:44:10;;;;;;;38.03;20.47;;;5.60;99.90;;;;;;4957553;28;20045;-91
2023/10/18 01:46:38;;;;;;;32.93;19.30;;;5.60;99.90;;;;;;4954806;28;20565;-91
2023/10/18 01:49:07;;;;;;;36.53;21.50;;;5.50;99.90;;;;;;4957653;28;20066;-91
2023/10/18 01:51:33;;;;;;;32.43;19.83;;;5.50;99.90;;;;;;4973942;28;20085;-91
2023/10/18 01:54:12;;;;;;;34.63;20.13;;;5.50;99.90;;;;;;4957838;28;20062;-92
2023/10/18 01:56:38;;;;;;;33.73;19.23;;;5.50;99.90;;;;;;4955242;28;20063;-91
2023/10/18 01:59:08;;;;;;;34.23;20.87;;;5.40;99.90;;;;;;4957817;28;20116;-92
2023/10/18 02:01:34;;;;;;;36.80;20.40;;;5.40;99.90;;;;;;4957591;28;20035;-90
2023/10/18 02:04:00;;;;;;;31.80;19.80;;;5.40;99.90;;;;;;4936157;28;20414;-92
2023/10/18 02:06:27;;;;;;;32.10;20.33;;;5.40;99.90;;;;;;4974058;28;20043;-92
2023/10/18 02:08:53;;;;;;;33.73;20.17;;;5.40;99.90;;;;;;4973860;28;20049;-91
2023/10/18 02:11:19;;;;;;;33.20;20.27;;;5.40;99.90;;;;;;4956586;28;20043;-92
2023/10/18 02:13:44;;;;;;;31.03;20.07;;;5.40;99.90;;;;;;4973670;28;20050;-91
2023/10/18 02:16:15;;;;;;;34.80;20.07;;;5.40;99.90;;;;;;4970319;28;20053;-89
2023/10/18 02:18:41;;;;;;;34.93;19.37;;;5.40;99.90;;;;;;4972086;28;20050;-89
2023/10/18 02:21:08;;;;;;;32.17;19.77;;;5.40;99.90;;;;;;4956031;28;20035;-89
2023/10/18 02:23:36;;;;;;;32.23;20.03;;;5.40;99.90;;;;;;4971074;28;20101;-90
2023/10/18 02:26:09;;;;;;;31.03;19.67;;;5.40;99.90;;;;;;4973106;28;20034;-89
2023/10/18 02:28:36;;;;;;;30.43;18.63;;;5.40;99.90;;;;;;4947228;29;20039;-89
2023/10/18 02:31:10;;;;;;;34.87;19.73;;;5.50;99.90;;;;;;4970974;28;20125;-89
2023/10/18 02:33:36;;;;;;;32.10;19.43;;;5.40;99.90;;;;;;4973498;28;20043;-90
2023/10/18 02:36:12;;;;;;;29.67;18.83;;;5.40;99.90;;;;;;4937588;28;20027;-91
2023/10/18 02:38:41;;;;;;;33.97;18.87;;;5.30;99.90;;;;;;4965961;28;20039;-91
2023/10/18 02:43:57;;;;;;;30.07;18.87;;;5.30;99.90;;;;;;4969190;28;20114;-90
2023/10/18 02:46:24;;;;;;;28.30;17.90;;;5.30;99.90;;;;;;4972606;28;20073;-90
2023/10/18 02:48:54;;;;;;;30.97;19.07;;;5.30;99.90;;;;;;4940796;28;20049;-90
2023/10/18 02:51:24;;;;;;;26.53;18.13;;;5.30;99.90;;;;;;4953546;28;20039;-90
2023/10/18 02:53:51;;;;;;;28.93;18.53;;;5.30;99.90;;;;;;4949483;28;20415;-89
2023/10/18 02:56:20;;;;;;;34.13;19.87;;;5.30;99.90;;;;;;4971004;28;20042;-89
2023/10/18 02:58:49;;;;;;;28.03;18.57;;;5.30;99.90;;;;;;4953919;28;20177;-90
2023/10/18 03:01:19;;;;;;;29.00;18.63;;;5.20;99.90;;;;;;4951649;28;20027;-90
2023/10/18 03:03:54;;;;;;;27.30;18.17;;;5.20;99.90;;;;;;4982431;28;20035;-90
2023/10/18 03:06:24;;;;;;;28.93;19.27;;;5.10;99.90;;;;;;4949785;28;20046;-90
2023/10/18 03:08:50;;;;;;;32.67;19.40;;;5.10;99.90;;;;;;4955969;28;20070;-91
2023/10/18 03:11:20;;;;;;;29.87;19.87;;;5.10;99.90;;;;;;4956478;28;20074;-90
2023/10/18 03:13:46;;;;;;;29.93;18.77;;;5.10;99.90;;;;;;4954718;28;20049;-90
2023/10/18 03:18:44;;;;;;;29.17;18.83;;;5.10;99.90;;;;;;4972549;28;20055;-90
2023/10/18 03:21:22;;;;;;;28.13;18.70;;;5.10;99.90;;;;;;4970654;28;20069;-90
2023/10/18 03:23:51;;;;;;;30.37;18.47;;;5.10;99.90;;;;;;4956337;28;20039;-90
2023/10/18 03:26:35;;;;;;;28.73;19.23;;;5.10;99.90;;;;;;4967227;28;20039;-90
2023/10/18 03:29:11;;;;;;;28.27;19.20;;;5.10;99.90;;;;;;4955980;28;20043;-90
2023/10/18 03:31:40;;;;;;;31.43;20.40;;;5.10;99.90;;;;;;4950819;28;20046;-89
2023/10/18 03:34:19;;;;;;;27.07;18.77;;;5.10;99.90;;;;;;4955295;28;20102;-88
2023/10/18 03:36:49;;;;;;;35.17;20.67;;;5.10;99.90;;;;;;4949814;28;20439;-90
2023/10/18 03:39:19;;;;;;;27.83;19.07;;;5.10;99.90;;;;;;4956004;28;20121;-90
2023/10/18 03:41:50;;;;;;;33.83;20.63;;;5.10;99.90;;;;;;4971599;28;20046;-89
2023/10/18 03:44:26;;;;;;;27.90;19.00;;;5.20;99.90;;;;;;4967211;28;20045;-90
2023/10/18 03:47:03;;;;;;;29.77;19.60;;;5.20;99.90;;;;;;4964317;28;20043;-90
2023/10/18 03:51:56;;;;;;;30.97;19.60;;;5.20;99.90;;;;;;4971730;28;20049;-89
2023/10/18 03:54:27;;;;;;;30.03;20.17;;;5.20;99.90;;;;;;4955917;28;20042;-90
2023/10/18 03:56:54;;;;;;;28.73;20.53;;;5.20;99.90;;;;;;4945983;28;20058;-89
2023/10/18 03:59:23;;;;;;;28.50;19.73;;;5.20;99.90;;;;;;4971372;28;20043;-90
2023/10/18 04:02:35;;;;;;;29.33;19.53;;;5.20;99.90;;;;;;4955412;28;20114;-90
2023/10/18 04:04:37;;;;;;;30.50;20.50;;;5.20;99.90;;;;;;4948442;28;20050;-90
2023/10/18 04:07:13;;;;;;;32.73;20.87;;;5.30;99.90;;;;;;4956273;28;20038;-90
2023/10/18 04:09:45;;;;;;;32.07;20.97;;;5.30;99.90;;;;;;4940632;28;20549;-90
2023/10/18 04:12:13;;;;;;;29.27;19.30;;;5.30;99.90;;;;;;4950517;28;20039;-89
2023/10/18 04:14:40;;;;;;;31.80;20.57;;;5.20;99.90;;;;;;4956745;28;20054;-90
2023/10/18 04:17:18;;;;;;;29.70;19.93;;;5.20;99.90;;;;;;4956295;28;20038;-90
2023/10/18 04:19:43;;;;;;;32.67;20.83;;;5.20;99.90;;;;;;4961527;28;20042;-90
2023/10/18 04:22:09;;;;;;;31.20;19.97;;;5.10;99.90;;;;;;4960032;28;20030;-90
2023/10/18 04:24:35;;;;;;;31.27;20.57;;;5.00;99.90;;;;;;4976019;28;20043;-89
2023/10/18 04:27:04;;;;;;;29.03;19.63;;;5.00;99.90;;;;;;4943869;28;20039;-90
2023/10/18 04:29:33;;;;;;;30.87;20.90;;;5.00;99.90;;;;;;4960496;28;20082;-89
2023/10/18 04:32:03;;;;;;;32.60;21.27;;;5.00;99.90;;;;;;4967148;28;20279;-88
2023/10/18 04:34:33;;;;;;;32.93;20.83;;;5.00;99.90;;;;;;4967478;28;20062;-90
2023/10/18 04:37:00;;;;;;;28.67;20.13;;;5.00;99.90;;;;;;4944214;28;20100;-90
2023/10/18 04:39:27;;;;;;;31.03;21.30;;;5.00;99.90;;;;;;4959707;28;20043;-90
2023/10/18 04:41:53;;;;;;;30.77;21.30;;;5.10;99.90;;;;;;4959400;28;20043;-90
2023/10/18 04:44:20;;;;;;;30.93;20.13;;;5.00;99.90;;;;;;4959525;28;20131;-90
2023/10/18 04:46:47;;;;;;;32.93;20.17;;;5.00;99.90;;;;;;4941675;28;20070;-89
2023/10/18 04:54:08;;;;;;;33.20;21.40;;;4.80;99.90;;;;;;4975288;28;20047;-90
2023/10/18 04:56:37;;;;;;;32.07;21.80;;;4.80;99.90;;;;;;4956486;28;20098;-90
2023/10/18 04:59:46;;;;;;;34.07;21.53;;;4.80;99.90;;;;;;4957387;28;20130;-89
2023/10/18 05:04:54;;;;;;;33.40;23.60;;;4.70;99.90;;;;;;4970526;28;20113;-89
2023/10/18 05:07:15;;;;;;;33.33;23.70;;;4.70;99.90;;;;;;4954792;28;20121;-90
2023/10/18 05:09:43;;;;;;;34.93;22.20;;;4.70;99.90;;;;;;4973588;28;20050;-90
2023/10/18 05:15:09;;;;;;;36.33;23.63;;;4.70;99.90;;;;;;4970728;28;20780;-88
2023/10/18 05:17:39;;;;;;;34.37;23.07;;;4.70;99.90;;;;;;4958707;28;20051;-89
2023/10/18 05:22:45;;;;;;;34.80;23.47;;;4.70;99.90;;;;;;4974843;28;20046;-89
2023/10/18 05:27:45;;;;;;;37.27;23.10;;;4.70;99.90;;;;;;4970055;28;20403;-88
2023/10/18 05:30:15;;;;;;;39.25;24.50;;;4.70;99.90;;;;;;4958297;28;20041;-90
2023/10/18 05:32:49;;;;;;;36.87;22.93;;;4.70;99.90;;;;;;4957515;28;20089;-90
2023/10/18 05:35:48;;;;;;;37.20;23.13;;;4.70;99.90;;;;;;4967065;28;20051;-90
2023/10/18 05:43:07;;;;;;;35.20;23.80;;;4.60;99.90;;;;;;4974144;28;20039;-89
2023/10/18 05:45:33;;;;;;;35.50;23.00;;;4.60;99.90;;;;;;4942349;28;20038;-89
2023/10/18 05:48:17;;;;;;;32.70;22.37;;;4.60;99.90;;;;;;4958367;28;20494;-90
2023/10/18 05:50:55;;;;;;;37.07;23.37;;;4.60;99.90;;;;;;4944690;28;20042;-90
2023/10/18 05:53:24;;;;;;;36.03;23.87;;;4.60;99.90;;;;;;4958570;28;20038;-90
2023/10/18 05:55:52;;;;;;;35.03;23.40;;;4.60;99.90;;;;;;4943036;28;20057;-90
2023/10/18 05:58:27;;;;;;;35.30;22.57;;;4.60;99.90;;;;;;4959094;28;20046;-90
2023/10/18 06:00:57;;;;;;;39.60;25.47;;;4.60;99.90;;;;;;4974717;28;20043;-90
2023/10/18 06:03:26;;;;;;;34.23;22.50;;;4.60;99.90;;;;;;4974815;28;20046;-90
2023/10/18 06:05:55;;;;;;;36.10;23.77;;;4.60;99.90;;;;;;4972751;28;20101;-90
2023/10/18 06:08:25;;;;;;;38.40;24.87;;;4.60;99.90;;;;;;4962085;28;20562;-89
2023/10/18 06:10:56;;;;;;;42.20;24.63;;;4.60;99.90;;;;;;4956957;28;20050;-90
2023/10/18 06:13:22;;;;;;;37.78;24.65;;;4.50;99.90;;;;;;4940246;29;20085;-90
2023/10/18 06:15:51;;;;;;;37.90;23.60;;;4.60;99.90;;;;;;4969028;28;20074;-89
2023/10/18 06:18:26;;;;;;;37.70;23.47;;;4.60;99.90;;;;;;4957770;28;20039;-91
2023/10/18 06:20:54;;;;;;;35.03;23.13;;;4.60;99.90;;;;;;4966254;28;20101;-90
2023/10/18 06:23:36;;;;;;;39.30;24.10;;;4.60;99.90;;;;;;4986368;28;20042;-90
2023/10/18 06:26:28;;;;;;;36.07;22.83;;;4.60;99.90;;;;;;4960205;28;20100;-90
2023/10/18 06:29:00;;;;;;;35.70;24.37;;;4.60;99.90;;;;;;4957320;28;20039;-90
2023/10/18 06:31:30;;;;;;;35.67;23.33;;;4.60;99.90;;;;;;4954603;28;20039;-89
2023/10/18 06:33:59;;;;;;;36.03;24.07;;;4.70;99.90;;;;;;4957682;28;20047;-89
2023/10/18 06:36:26;;;;;;;39.60;23.63;;;4.70;99.90;;;;;;4941541;28;20035;-89
2023/10/18 06:38:52;;;;;;;37.73;24.13;;;4.60;99.90;;;;;;4957380;28;20081;-89
2023/10/18 06:41:22;;;;;;;38.30;23.27;;;4.70;99.90;;;;;;4973052;28;20525;-89
2023/10/18 06:43:49;;;;;;;38.23;23.50;;;4.70;99.90;;;;;;4952272;28;20121;-89
2023/10/18 06:46:28;;;;;;;35.33;24.03;;;4.70;99.90;;;;;;4962775;28;20042;-88
2023/10/18 06:48:58;;;;;;;38.37;24.97;;;4.70;99.90;;;;;;4957436;28;20101;-88
2023/10/18 06:51:31;;;;;;;41.03;24.13;;;4.70;99.90;;;;;;4941695;28;20043;-89
2023/10/18 06:54:03;;;;;;;34.87;22.93;;;4.80;99.90;;;;;;4954443;28;20394;-89
2023/10/18 06:56:32;;;;;;;39.37;24.70;;;4.80;99.90;;;;;;4964444;28;20474;-88
2023/10/18 06:59:04;;;;;;;40.57;25.40;;;4.80;99.90;;;;;;4957396;28;20081;-89
2023/10/18 07:01:31;;;;;;;40.47;24.87;;;4.80;99.90;;;;;;4941158;28;20483;-88
2023/10/18 07:03:57;;;;;;;36.50;23.63;;;4.90;99.90;;;;;;4956511;28;20121;-89
2023/10/18 07:06:29;;;;;;;33.60;23.17;;;4.90;99.90;;;;;;4972341;28;20078;-89
2023/10/18 07:09:02;;;;;;;37.08;22.98;;;5.00;99.90;;;;;;4939875;28;20039;-89
2023/10/18 07:11:28;;;;;;;39.67;24.13;;;5.00;99.90;;;;;;4951808;29;20038;-89
2023/10/18 07:13:57;;;;;;;37.03;22.67;;;5.10;99.90;;;;;;4945922;28;20082;-89
2023/10/18 07:16:33;;;;;;;38.63;23.93;;;5.20;99.90;;;;;;4972496;28;20499;-89
2023/10/18 07:19:24;;;;;;;35.70;23.37;;;5.20;99.90;;;;;;4934212;28;20093;-90
2023/10/18 07:21:51;;;;;;;36.63;24.27;;;5.20;99.90;;;;;;4954873;28;20446;-89
2023/10/18 07:24:27;;;;;;;34.80;22.63;;;5.20;99.90;;;;;;4971250;28;20073;-89
2023/10/18 07:26:53;;;;;;;34.60;23.00;;;5.30;99.90;;;;;;4963878;28;20078;-89
2023/10/18 07:29:20;;;;;;;33.83;23.57;;;5.40;99.90;;;;;;4956612;28;20081;-89
2023/10/18 07:31:46;;;;;;;36.13;22.73;;;5.40;99.90;;;;;;4962501;28;20044;-87
2023/10/18 07:34:19;;;;;;;34.13;22.13;;;5.50;99.90;;;;;;4945864;28;20084;-89
2023/10/18 07:36:48;;;;;;;33.10;22.20;;;5.50;99.90;;;;;;4953908;28;20045;-88
2023/10/18 07:39:16;;;;;;;34.73;22.27;;;5.60;99.90;;;;;;4951399;28;20039;-89
2023/10/18 07:41:43;;;;;;;35.53;22.53;;;5.70;99.90;;;;;;4955368;28;20098;-89
2023/10/18 07:44:08;;;;;;;32.43;21.57;;;5.80;99.90;;;;;;4952887;28;20051;-88
2023/10/18 07:46:39;;;;;;;32.07;21.47;;;5.80;99.90;;;;;;4963701;28;20050;-88
2023/10/18 07:49:15;;;;;;;31.83;21.77;;;5.90;99.90;;;;;;4952910;28;20070;-89
2023/10/18 07:51:59;;;;;;;33.97;21.87;;;6.00;99.90;;;;;;4972525;28;20053;-89
2023/10/18 07:54:26;;;;;;;35.90;22.00;;;6.00;99.90;;;;;;4949274;29;20046;-90
2023/10/18 07:56:54;;;;;;;33.33;21.80;;;6.10;99.90;;;;;;4962734;28;20455;-89
2023/10/18 07:59:28;;;;;;;29.67;20.93;;;6.20;99.90;;;;;;4964868;28;20400;-90
2023/10/18 08:04:36;;;;;;;31.52;20.92;;;6.30;99.90;;;;;;4972041;28;20042;-89
2023/10/18 08:07:10;;;;;;;30.43;20.17;;;6.40;99.90;;;;;;4955784;28;20043;-90
2023/10/18 08:09:40;;;;;;;29.90;20.07;;;6.40;99.90;;;;;;4971973;28;20141;-89
2023/10/18 08:12:07;;;;;;;28.13;19.80;;;6.50;99.90;;;;;;4940952;28;20047;-85
2023/10/18 08:14:33;;;;;;;30.90;20.43;;;6.60;99.90;;;;;;4971981;28;20562;-87
2023/10/18 08:17:08;;;;;;;28.77;19.17;;;6.70;99.90;;;;;;4971730;28;20575;-87
2023/10/18 08:19:44;;;;;;;29.97;19.73;;;6.70;99.90;;;;;;4952373;28;20109;-87
2023/10/18 08:24:36;;;;;;;30.27;19.40;;;6.90;99.90;;;;;;4971871;28;20043;-87
2023/10/18 08:27:10;;;;;;;26.50;18.37;;;6.90;99.90;;;;;;4952199;28;20093;-87
2023/10/18 08:29:37;;;;;;;25.90;18.00;;;7.00;99.90;;;;;;4955798;28;20083;-87
2023/10/18 08:32:29;;;;;;;28.87;19.23;;;7.10;99.90;;;;;;4939699;28;20046;-88
2023/10/18 08:34:50;;;;;;;27.70;18.73;;;7.10;99.90;;;;;;4958244;28;20386;-87
2023/10/18 08:37:16;;;;;;;29.20;19.07;;;7.20;99.90;;;;;;4955456;28;20043;-88
2023/10/18 08:40:06;;;;;;;26.80;18.03;;;7.20;99.90;;;;;;4970471;28;20077;-89
2023/10/18 08:42:30;;;;;;;28.07;17.93;;;7.30;99.90;;;;;;4969710;28;20043;-87
2023/10/18 08:44:56;;;;;;;26.67;18.20;;;7.30;99.90;;;;;;4971810;28;20122;-86
2023/10/18 08:47:39;;;;;;;26.50;18.73;;;7.30;99.90;;;;;;4939875;29;20126;-87
2023/10/18 08:50:10;;;;;;;28.77;18.73;;;7.40;99.90;;;;;;4923535;29;20550;-87
2023/10/18 08:52:47;;;;;;;26.67;18.20;;;7.40;99.90;;;;;;4956516;28;20098;-87
2023/10/18 08:55:22;;;;;;;27.03;18.27;;;7.40;99.90;;;;;;4951781;28;20491;-88
2023/10/18 08:57:48;;;;;;;24.83;18.67;;;7.50;99.90;;;;;;4959729;28;20451;-88
2023/10/18 09:02:53;;;;;;;27.97;18.70;;;7.50;99.90;;;;;;4957624;29;20055;-87
2023/10/18 09:05:23;;;;;;;26.70;17.73;;;7.60;99.90;;;;;;4958808;28;20046;-89
2023/10/18 09:07:53;;;;;;;26.97;18.20;;;7.60;99.90;;;;;;4975260;28;20039;-88
2023/10/18 09:13:29;;;;;;;26.13;17.13;;;7.70;99.90;;;;;;4975497;28;20620;-88
2023/10/18 09:18:26;;;;;;;26.33;16.97;;;7.80;99.90;;;;;;4975217;28;20055;-86
2023/10/18 09:20:55;;;;;;;25.80;16.83;;;7.90;99.90;;;;;;4971740;28;20039;-87
2023/10/18 09:23:25;;;;;;;25.77;17.07;;;7.90;99.90;;;;;;4958913;28;20682;-86
2023/10/18 09:25:51;;;;;;;25.43;16.60;;;8.00;99.90;;;;;;4955147;29;20043;-87
2023/10/18 09:28:25;;;;;;;23.33;15.80;;;8.10;99.90;;;;;;4988480;28;20045;-87
2023/10/18 09:31:00;;;;;;;23.80;15.83;;;8.20;99.90;;;;;;4959205;28;20047;-87
2023/10/18 09:33:32;;;;;;;25.27;16.13;;;8.20;99.90;;;;;;4955542;29;20070;-86
2023/10/18 09:36:02;;;;;;;21.02;15.18;;;8.30;99.90;;;;;;4958681;28;20039;-87
2023/10/18 09:38:41;;;;;;;25.00;16.50;;;8.30;99.90;;;;;;4959389;28;20066;-87
2023/10/18 09:41:07;;;;;;;20.97;15.37;;;8.40;99.90;;;;;;4980309;28;20038;-86
2023/10/18 09:43:36;;;;;;;21.77;15.37;;;8.50;99.90;;;;;;4958681;28;20038;-87
2023/10/18 09:46:03;;;;;;;22.97;15.43;;;8.60;99.90;;;;;;4973512;28;20046;-88
2023/10/18 09:48:32;;;;;;;19.77;13.90;;;8.60;99.90;;;;;;4956912;28;20535;-87
2023/10/18 09:51:14;;;;;;;19.50;14.37;;;8.70;99.90;;;;;;4975116;28;20046;-88
2023/10/18 09:54:06;;;;;;;18.53;13.70;;;8.80;99.90;;;;;;4959268;28;20364;-88
2023/10/18 09:56:34;;;;;;;19.02;12.93;;;8.90;99.90;;;;;;4988046;28;20051;-89
2023/10/18 09:59:08;;;;;;;20.40;14.30;;;8.90;99.90;;;;;;4958305;28;20126;-88
2023/10/18 10:04:14;;;;;;;19.83;13.80;;;9.00;99.90;;;;;;4974202;28;20035;-89
2023/10/18 10:06:47;;;;;;;19.50;13.53;;;9.10;99.90;;;;;;4964954;28;20047;-88
2023/10/18 10:09:14;;;;;;;18.67;13.63;;;9.20;99.90;;;;;;4953494;28;20050;-86
2023/10/18 10:11:45;;;;;;;19.87;13.67;;;9.20;99.90;;;;;;4973643;28;20481;-86
2023/10/18 10:14:16;;;;;;;17.00;13.40;;;9.30;99.90;;;;;;4958174;28;20431;-87
2023/10/18 10:16:52;;;;;;;18.63;13.43;;;9.30;99.90;;;;;;4958254;28;20047;-89
2023/10/18 10:19:22;;;;;;;18.43;13.13;;;9.40;99.90;;;;;;4954161;29;20790;-87
2023/10/18 10:21:49;;;;;;;19.07;13.47;;;9.40;99.90;;;;;;4967646;28;20037;-87
2023/10/18 10:24:30;;;;;;;17.97;12.83;;;9.40;99.90;;;;;;4957242;28;20509;-87
2023/10/18 10:27:27;;;;;;;17.77;13.07;;;9.40;99.90;;;;;;4942979;28;20049;-87
2023/10/18 10:29:57;;;;;;;17.70;12.53;;;9.50;99.90;;;;;;4969364;28;20046;-85
2023/10/18 10:32:32;;;;;;;16.43;11.87;;;9.50;99.90;;;;;;4959887;28;20066;-87
2023/10/18 10:35:15;;;;;;;17.13;12.83;;;9.50;99.90;;;;;;4972018;28;20046;-90
2023/10/18 10:37:51;;;;;;;16.37;12.93;;;9.50;99.90;;;;;;4953961;29;20558;-87
2023/10/18 10:43:09;;;;;;;16.47;12.50;;;9.70;99.90;;;;;;4952351;28;20054;-87
2023/10/18 10:51:16;;;;;;;18.27;12.47;;;9.90;99.90;;;;;;4960504;28;20050;-88
2023/10/18 10:53:48;;;;;;;19.60;11.60;;;10.00;99.90;;;;;;4939311;28;20058;-89
2023/10/18 10:56:17;;;;;;;16.23;12.25;;;10.10;99.90;;;;;;4969603;28;20545;-90
2023/10/18 10:59:03;;;;;;;16.20;11.37;;;10.20;99.90;;;;;;4955838;28;20043;-88
2023/10/18 11:01:43;;;;;;;16.93;11.50;;;10.20;99.90;;;;;;4964584;28;20061;-90
2023/10/18 11:04:28;;;;;;;15.93;11.10;;;10.30;99.90;;;;;;4951653;28;20039;-88
2023/10/18 11:07:03;;;;;;;16.90;11.20;;;10.40;99.90;;;;;;4970743;28;20120;-86
2023/10/18 11:09:36;;;;;;;14.53;10.70;;;10.40;99.90;;;;;;4965184;28;20085;-90
2023/10/18 11:12:04;;;;;;;14.23;10.80;;;10.40;99.90;;;;;;4940762;28;20129;-87
2023/10/18 11:14:35;;;;;;;15.37;10.57;;;10.50;99.90;;;;;;4956215;28;20242;-88
2023/10/18 11:20:07;;;;;;;14.23;10.10;;;10.50;99.90;;;;;;4972447;28;20073;-87
2023/10/18 11:22:33;;;;;;;14.17;9.57;;;10.60;99.90;;;;;;4972960;28;20094;-87
2023/10/18 11:25:00;;;;;;;12.90;10.10;;;10.50;99.90;;;;;;4956827;28;20121;-86
2023/10/18 11:27:36;;;;;;;14.87;10.23;;;10.60;99.90;;;;;;4956225;28;20043;-88
2023/10/18 11:30:15;;;;;;;12.50;10.00;;;10.60;99.90;;;;;;4956364;28;20047;-88
2023/10/18 11:32:48;;;;;;;14.27;9.53;;;10.60;99.90;;;;;;4956317;28;20105;-88
2023/10/18 11:35:42;;;;;;;13.00;9.80;;;10.70;99.90;;;;;;4940509;28;20442;-87
2023/10/18 11:38:13;;;;;;;11.93;9.27;;;10.70;99.90;;;;;;4956193;28;20045;-88
2023/10/18 11:40:43;;;;;;;13.50;9.93;;;10.70;99.90;;;;;;4971395;28;20574;-87
2023/10/18 11:43:10;;;;;;;11.73;8.87;;;10.70;99.90;;;;;;4957824;28;20325;-88
2023/10/18 11:45:37;;;;;;;11.90;9.00;;;10.80;99.90;;;;;;4972540;28;20043;-89
2023/10/18 11:48:09;;;;;;;12.50;9.03;;;10.80;99.90;;;;;;4956245;28;20038;-86
2023/10/18 11:50:49;;;;;;;12.60;10.13;;;10.90;99.90;;;;;;4956038;28;20047;-88
2023/10/18 11:53:22;;;;;;;12.77;9.87;;;10.90;99.90;;;;;;4956278;28;20050;-88
2023/10/18 11:55:59;;;;;;;13.80;9.83;;;11.00;99.90;;;;;;4972026;28;20061;-87
2023/10/18 11:58:27;;;;;;;12.37;9.60;;;11.00;99.90;;;;;;4954502;28;20762;-86
2023/10/18 12:01:05;;;;;;;12.90;10.07;;;11.10;99.90;;;;;;4961625;28;20039;-87
2023/10/18 12:03:35;;;;;;;12.07;9.43;;;11.10;99.90;;;;;;4971869;28;20073;-88
2023/10/18 12:06:03;;;;;;;12.33;9.37;;;11.10;99.90;;;;;;4955231;28;20051;-87
2023/10/18 12:08:40;;;;;;;12.67;9.10;;;11.20;99.90;;;;;;4971558;28;20046;-89
2023/10/18 12:11:08;;;;;;;13.83;9.87;;;11.20;99.90;;;;;;4961384;28;20038;-86
2023/10/18 12:13:34;;;;;;;18.87;9.50;;;11.30;99.90;;;;;;4956313;28;20046;-86
2023/10/18 12:16:00;;;;;;;13.60;9.33;;;11.20;99.90;;;;;;4971653;28;20053;-86
2023/10/18 12:18:29;;;;;;;10.83;8.93;;;11.30;99.90;;;;;;4955899;28;20043;-86
2023/10/18 12:20:56;;;;;;;11.57;9.23;;;11.30;99.90;;;;;;4971240;28;20395;-87
2023/10/18 12:23:22;;;;;;;13.73;9.80;;;11.30;99.90;;;;;;4956341;28;20039;-86
2023/10/18 12:25:48;;;;;;;11.97;9.13;;;11.20;99.90;;;;;;4972053;28;20097;-87
2023/10/18 12:28:17;;;;;;;11.47;8.97;;;11.30;99.90;;;;;;4972418;28;20418;-87
2023/10/18 12:30:44;;;;;;;12.23;9.40;;;11.30;99.90;;;;;;4971945;28;20097;-86
2023/10/18 12:33:33;;;;;;;13.57;9.10;;;11.30;99.90;;;;;;4959205;28;20054;-86
2023/10/18 12:36:07;;;;;;;12.20;9.33;;;11.30;99.90;;;;;;4980111;28;20065;-85
2023/10/18 12:38:33;;;;;;;10.50;8.80;;;11.40;99.90;;;;;;4975539;28;20146;-86
2023/10/18 12:41:00;;;;;;;12.90;8.87;;;11.40;99.90;;;;;;4964124;28;20453;-90
2023/10/18 12:43:31;;;;;;;12.80;9.37;;;11.40;99.90;;;;;;4959248;28;20038;-85
2023/10/18 12:46:00;;;;;;;11.43;9.00;;;11.50;99.90;;;;;;4969284;28;20070;-87
2023/10/18 12:48:27;;;;;;;14.67;9.33;;;11.40;99.90;;;;;;4958828;28;20043;-86
2023/10/18 12:50:54;;;;;;;12.25;9.13;;;11.40;99.90;;;;;;4975197;28;20042;-88
2023/10/18 12:55:57;;;;;;;14.03;10.00;;;11.40;99.90;;;;;;4974979;28;20059;-88
2023/10/18 12:58:30;;;;;;;14.73;9.93;;;11.50;99.90;;;;;;4959450;28;20491;-88
2023/10/18 13:01:05;;;;;;;16.67;10.93;;;11.40;99.90;;;;;;4958594;28;20074;-88
2023/10/18 13:03:37;;;;;;;14.30;10.20;;;11.40;99.90;;;;;;4958270;28;20034;-87
2023/10/18 13:06:08;;;;;;;14.18;10.77;;;11.40;99.90;;;;;;4958860;28;20087;-86
2023/10/18 13:08:37;;;;;;;15.70;10.07;;;11.40;99.90;;;;;;4943429;28;20055;-88
2023/10/18 13:13:30;;;;;;;12.80;9.63;;;11.30;99.90;;;;;;4974777;28;20051;-85
2023/10/18 13:15:59;;;;;;;12.82;9.50;;;11.40;99.90;;;;;;4969316;28;20074;-85
2023/10/18 13:18:26;;;;;;;14.57;10.30;;;11.30;99.90;;;;;;4958582;28;20564;-88
2023/10/18 13:20:55;;;;;;;17.00;10.30;;;11.40;99.90;;;;;;4955595;28;20031;-88
2023/10/18 13:23:27;;;;;;;14.40;9.80;;;11.40;99.90;;;;;;4964846;28;20042;-85
2023/10/18 13:25:56;;;;;;;14.30;9.93;;;11.40;99.90;;;;;;4956115;28;20050;-84
2023/10/18 13:28:48;;;;;;;14.55;10.48;;;11.50;99.90;;;;;;4959975;28;20049;-86
2023/10/18 13:31:22;;;;;;;;;;;11.50;99.90;;;;;;4982109;28;20058;-88
2023/10/18 13:33:52;;;;;;;15.03;10.23;;;11.50;99.90;;;;;;4974857;28;19925;-84
2023/10/18 13:36:21;;;;;;;14.67;10.30;;;11.60;99.90;;;;;;4958064;28;20050;-88
2023/10/18 13:38:51;;;;;;;15.53;10.27;;;11.60;99.90;;;;;;4974139;28;20045;-86
2023/10/18 13:41:17;;;;;;;13.45;9.65;;;11.70;99.90;;;;;;4973570;28;20046;-87
2023/10/18 13:43:44;;;;;;;15.82;10.80;;;11.80;99.90;;;;;;4955891;28;20042;-86
2023/10/18 13:46:18;;;;;;;14.93;10.23;;;11.90;99.90;;;;;;4958046;28;20123;-87
2023/10/18 13:48:46;;;;;;;14.80;10.20;;;11.90;99.90;;;;;;4973449;28;20491;-87
2023/10/18 13:51:13;;;;;;;13.88;9.90;;;12.00;99.90;;;;;;4957972;28;20107;-86
2023/10/18 13:53:41;;;;;;;15.25;10.13;;;12.00;99.90;;;;;;4974414;28;20798;-85
2023/10/18 13:56:10;;;;;;;14.07;10.20;;;12.00;99.90;;;;;;4974060;28;20152;-86
2023/10/18 13:58:36;;;;;;;13.55;9.30;;;11.90;99.90;;;;;;4957190;28;20050;-87